Weather History for PAJC - September, 2013

Change the Weather History Date:

Saturday, September 28, 2013

  Actual Average Record
Temperature  
Mean Temperature 43 °F -  
Max Temperature 44 °F 48 °F 55 °F (2004)
Min Temperature 42 °F 42 °F 35 °F (2012)
Degree Days  
Heating Degree Days 22    
Moisture  
Dew Point 32 °F    
Average Humidity 65    
Maximum Humidity 81    
Minimum Humidity 53    
Precipitation  
Precipitation 0.03 in - - ()
Sea Level Pressure  
Sea Level Pressure 29.57 in    
Wind  
Wind Speed 18 mph (WNW)    
Max Wind Speed 33 mph    
Max Gust Speed 56 mph    
Visibility 10 miles    
Events      
Averages and records for this station are not official NWS values.
T = Trace of Precipitation, MM = Missing Value Source: NWS Daily Summary

Daily Weather History Graph

Daily Weather History Graph

Search for Another Location

Airport or City:

Trip Planner

Search our weather history database for the weather conditions in past years. The results will help you decide how hot, cold, wet, or windy it might be!

Date:

Astronomy

Sep. 28, 2013 Rise Set
Actual Time 8:31 AM AKDT 8:15 PM AKDT
Civil Twilight 7:54 AM AKDT 8:52 PM AKDT
Nautical Twilight 7:10 AM AKDT 9:36 PM AKDT
Astronomical Twilight 6:24 AM AKDT 10:21 PM AKDT
Moon 1:32 AM AKDT (9/28) 5:32 PM AKDT (9/28)
Length of Visible Light 12h 58m
Length of Day
11h 43m
Waning Crescent, 34% of the Moon is Illuminated
Sep 28
Waning Crescent
Oct 4
New
Oct 11
First Quarter
Oct 18
Full
Oct 26
Last Quarter

Hourly Weather History & Observations

Time (AKDT) Temp. Windchill Dew Point Humidity Pressure Visibility Wind Dir Wind Speed Gust Speed Precip Events Conditions
12:16 AM 44.6 °F 35.9 °F 37.4 °F 76% 29.55 in 10.0 mi West 23.0 mph 40.3 mph N/A   Overcast
12:36 AM 42.8 °F 33.1 °F 37.4 °F 81% 29.54 in 10.0 mi West 25.3 mph 34.5 mph N/A   Overcast
12:56 AM 44.6 °F 35.5 °F 35.6 °F 71% 29.54 in 10.0 mi West 25.3 mph 39.1 mph N/A   Overcast
1:16 AM 42.8 °F 34.3 °F 35.6 °F 76% 29.55 in 10.0 mi WNW 19.6 mph 38.0 mph N/A   Overcast
1:36 AM 42.8 °F 34.8 °F 35.6 °F 76% 29.54 in 8.0 mi WNW 17.3 mph 33.4 mph N/A   Overcast
1:56 AM 42.8 °F 35.1 °F 35.6 °F 76% 29.55 in 10.0 mi West 16.1 mph 32.2 mph N/A   Overcast
2:16 AM 42.8 °F 34.5 °F 35.6 °F 76% 29.55 in 10.0 mi WNW 18.4 mph 36.8 mph N/A   Overcast
2:36 AM 42.8 °F 35.4 °F 33.8 °F 70% 29.56 in 10.0 mi West 15.0 mph 40.3 mph N/A   Overcast
2:56 AM 42.8 °F 32.5 °F 33.8 °F 70% 29.55 in 10.0 mi WSW 28.8 mph 43.7 mph N/A   Overcast
3:16 AM 42.8 °F 31.8 °F 33.8 °F 70% 29.55 in 10.0 mi West 33.4 mph 44.9 mph 0.01 in   Mostly Cloudy
3:36 AM 42.8 °F 34.5 °F 33.8 °F 70% 29.56 in 10.0 mi West 18.4 mph 44.9 mph 0.01 in   Overcast
3:56 AM 42.8 °F 35.1 °F 33.8 °F 70% 29.56 in 10.0 mi WNW 16.1 mph 33.4 mph 0.01 in   Overcast
4:16 AM 42.8 °F 38.0 °F 32.0 °F 66% 29.56 in 10.0 mi West 8.1 mph 44.9 mph N/A   Overcast
4:36 AM 42.8 °F 34.0 °F 32.0 °F 66% 29.55 in 10.0 mi WSW 20.7 mph 56.4 mph N/A   Overcast
4:56 AM 42.8 °F 32.9 °F 32.0 °F 66% 29.54 in 10.0 mi WSW 26.5 mph 46.0 mph N/A   Overcast
5:16 AM 42.8 °F 36.6 °F 32.0 °F 66% 29.53 in 10.0 mi SW 11.5 mph 39.1 mph N/A   Overcast
5:36 AM 42.8 °F 36.6 °F 33.8 °F 70% 29.53 in 10.0 mi NNW 11.5 mph 28.8 mph N/A   Overcast
5:56 AM 42.8 °F 35.4 °F 33.8 °F 70% 29.54 in 10.0 mi West 15.0 mph 27.6 mph N/A   Overcast
6:16 AM 42.8 °F 35.8 °F 35.6 °F 76% 29.54 in 9.0 mi NW 13.8 mph 28.8 mph N/A   Overcast
6:36 AM 42.8 °F 36.6 °F 35.6 °F 76% 29.54 in 10.0 mi WSW 11.5 mph 25.3 mph N/A   Overcast
6:56 AM 42.8 °F 39.3 °F 35.6 °F 76% 29.54 in 10.0 mi SE 5.8 mph 17.3 mph N/A   Overcast
7:16 AM 42.8 °F 38.0 °F 33.8 °F 70% 29.54 in 10.0 mi SSE 8.1 mph 21.9 mph N/A   Overcast
7:36 AM 42.8 °F 36.2 °F 35.6 °F 76% 29.55 in 10.0 mi WNW 12.7 mph 24.2 mph N/A   Overcast
7:56 AM 42.8 °F 38.0 °F 35.6 °F 76% 29.55 in 10.0 mi NW 8.1 mph 34.5 mph N/A   Overcast
8:16 AM 42.8 °F 37.0 °F 33.8 °F 70% 29.55 in 10.0 mi East 10.4 mph 28.8 mph N/A   Overcast
8:36 AM 42.8 °F 33.5 °F 33.8 °F 70% 29.54 in 10.0 mi WNW 23.0 mph 35.7 mph N/A   Overcast
8:56 AM 42.8 °F 35.8 °F 32.0 °F 66% 29.55 in 10.0 mi NW 13.8 mph 28.8 mph N/A   Overcast
9:16 AM 42.8 °F 36.2 °F 30.2 °F 61% 29.55 in 10.0 mi WNW 12.7 mph 26.5 mph N/A   Overcast
9:36 AM 42.8 °F 36.6 °F 30.2 °F 61% 29.55 in 10.0 mi West 11.5 mph 27.6 mph N/A   Overcast
9:56 AM 42.8 °F 39.3 °F 30.2 °F 61% 29.55 in 10.0 mi WNW 5.8 mph 31.1 mph N/A   Overcast
10:16 AM 42.8 °F 35.8 °F 32.0 °F 66% 29.56 in 10.0 mi WNW 13.8 mph 23.0 mph N/A   Overcast
10:36 AM 44.6 °F 38.4 °F 32.0 °F 61% 29.55 in 10.0 mi WNW 12.7 mph 27.6 mph N/A   Overcast
10:56 AM 42.8 °F 34.8 °F 30.2 °F 61% 29.55 in 10.0 mi West 17.3 mph 29.9 mph N/A   Overcast
11:16 AM 44.6 °F 36.6 °F 30.2 °F 57% 29.54 in 10.0 mi WNW 19.6 mph 27.6 mph N/A   Overcast
11:36 AM 44.6 °F 37.8 °F 32.0 °F 61% 29.55 in 10.0 mi West 15.0 mph 23.0 mph N/A   Overcast
11:56 AM 44.6 °F 37.4 °F 32.0 °F 61% 29.54 in 10.0 mi NNW 16.1 mph 28.8 mph N/A   Overcast
12:16 PM 44.6 °F 37.8 °F 33.8 °F 66% 29.54 in 10.0 mi WNW 15.0 mph 29.9 mph N/A   Mostly Cloudy
12:36 PM 44.6 °F 37.4 °F 30.2 °F 57% 29.54 in 10.0 mi NW 16.1 mph 27.6 mph N/A   Overcast
12:56 PM 42.8 °F 34.5 °F 33.8 °F 70% 29.54 in 10.0 mi WNW 18.4 mph 31.1 mph N/A   Overcast
1:16 PM 42.8 °F 33.5 °F 33.8 °F 70% 29.54 in 10.0 mi West 23.0 mph 34.5 mph N/A   Overcast
1:36 PM 42.8 °F 34.8 °F 33.8 °F 70% 29.54 in 10.0 mi WNW 17.3 mph 32.2 mph N/A   Overcast
1:56 PM 42.8 °F 35.4 °F 33.8 °F 70% 29.54 in 10.0 mi NW 15.0 mph 31.1 mph N/A   Overcast
2:16 PM 42.8 °F 34.3 °F 33.8 °F 70% 29.53 in 10.0 mi NW 19.6 mph 26.5 mph N/A   Overcast
2:36 PM 44.6 °F 37.2 °F 33.8 °F 66% 29.53 in 10.0 mi WNW 17.3 mph 29.9 mph N/A   Overcast
2:56 PM 44.6 °F 37.8 °F 32.0 °F 61% 29.54 in 10.0 mi WNW 15.0 mph 32.2 mph N/A   Overcast
3:16 PM 44.6 °F 36.4 °F 33.8 °F 66% 29.54 in 10.0 mi WNW 20.7 mph 36.8 mph N/A   Overcast
3:36 PM 44.6 °F 35.5 °F 32.0 °F 61% 29.54 in 10.0 mi West 25.3 mph 35.7 mph N/A   Overcast
3:56 PM 44.6 °F 36.4 °F 30.2 °F 57% 29.54 in 10.0 mi NW 20.7 mph 40.3 mph N/A   Overcast
4:16 PM 44.6 °F 36.1 °F 30.2 °F 57% 29.54 in 10.0 mi WNW 21.9 mph 36.8 mph N/A   Overcast
4:36 PM 44.6 °F 35.5 °F 30.2 °F 57% 29.54 in 10.0 mi WNW 25.3 mph 34.5 mph N/A   Overcast
4:56 PM 44.6 °F 36.6 °F 30.2 °F 57% 29.55 in 10.0 mi WNW 19.6 mph 42.6 mph 0.01 in   Mostly Cloudy
5:16 PM 44.6 °F 36.9 °F 30.2 °F 57% 29.54 in 10.0 mi WNW 18.4 mph 33.4 mph N/A   Overcast
5:36 PM 44.6 °F 36.1 °F 30.2 °F 57% 29.55 in 10.0 mi WNW 21.9 mph 32.2 mph N/A   Overcast
5:56 PM 44.6 °F 36.4 °F 28.4 °F 53% 29.56 in 10.0 mi WNW 20.7 mph 29.9 mph N/A   Overcast
6:16 PM 44.6 °F 36.4 °F 28.4 °F 53% 29.58 in 10.0 mi WNW 20.7 mph 36.8 mph N/A   Overcast
6:36 PM 44.6 °F 36.9 °F 30.2 °F 57% 29.58 in 10.0 mi WNW 18.4 mph 35.7 mph N/A   Overcast
6:56 PM 44.6 °F 36.6 °F 30.2 °F 57% 29.59 in 10.0 mi West 19.6 mph 39.1 mph 0.01 in   Overcast
7:16 PM 44.6 °F 36.1 °F 30.2 °F 57% 29.59 in 10.0 mi West 21.9 mph 33.4 mph N/A   Mostly Cloudy
7:36 PM 44.6 °F 36.9 °F 30.2 °F 57% 29.60 in 10.0 mi WNW 18.4 mph 29.9 mph N/A   Overcast
7:56 PM 44.6 °F 38.1 °F 32.0 °F 61% 29.61 in 10.0 mi WNW 13.8 mph 27.6 mph N/A   Overcast
8:16 PM 44.6 °F 36.9 °F 30.2 °F 57% 29.61 in 10.0 mi West 18.4 mph 25.3 mph N/A   Overcast
8:36 PM 44.6 °F 37.8 °F 30.2 °F 57% 29.62 in 10.0 mi WNW 15.0 mph 28.8 mph N/A   Overcast
8:56 PM 44.6 °F 36.6 °F 30.2 °F 57% 29.63 in 10.0 mi NW 19.6 mph 28.8 mph N/A   Overcast
9:16 PM 44.6 °F 36.9 °F 28.4 °F 53% 29.64 in 10.0 mi WNW 18.4 mph 35.7 mph N/A   Overcast
9:36 PM 44.6 °F 38.4 °F 30.2 °F 57% 29.65 in 10.0 mi NW 12.7 mph 29.9 mph N/A   Overcast
9:56 PM 44.6 °F 35.9 °F 28.4 °F 53% 29.64 in 10.0 mi NW 23.0 mph 34.5 mph N/A   Overcast
10:16 PM 44.6 °F 37.4 °F 30.2 °F 57% 29.65 in 10.0 mi WNW 16.1 mph 32.2 mph N/A   Overcast
10:36 PM 44.6 °F 37.2 °F 28.4 °F 53% 29.65 in 10.0 mi NW 17.3 mph 33.4 mph N/A   Mostly Cloudy
10:56 PM 42.8 °F 38.6 °F 32.0 °F 66% 29.65 in 10.0 mi WNW 6.9 mph 36.8 mph N/A   Mostly Cloudy
11:16 PM 42.8 °F 34.3 °F 32.0 °F 66% 29.66 in 10.0 mi NW 19.6 mph 29.9 mph N/A   Overcast
11:36 PM 42.8 °F 34.5 °F 32.0 °F 66% 29.67 in 10.0 mi WNW 18.4 mph 26.5 mph N/A   Overcast
11:56 PM 42.8 °F 34.8 °F 33.8 °F 70% 29.68 in 10.0 mi WNW 17.3 mph 26.5 mph N/A   Overcast